4XCGO LLHZ-LLHZ

Flight info

Callsign 4XCGO
Flight time 0h 1m
Altitude 800
Route CIRCUITS
Aircraft C172/L-V/N

Departure

Time 2026-04-22 18:08
Airport Herzliya Airport (LLHZ)

Arrival

Time 2026-04-22 18:10
Airport Herzliya Airport (LLHZ)
Time Latitude Longitude Altitude Speed Heading
2026-04-22 18:01 32.18218 34.82802 98 ft 0 kts 110°
2026-04-22 18:03 32.18207 34.82816 98 ft 6 kts 147°
2026-04-22 18:03 32.18185 34.82862 98 ft 6 kts 110°
2026-04-22 18:04 32.18161 34.82944 98 ft 10 kts 111°
2026-04-22 18:04 32.18138 34.83006 100 ft 7 kts 125°
2026-04-22 18:04 32.18108 34.83070 101 ft 9 kts 107°
2026-04-22 18:04 32.18086 34.83148 103 ft 12 kts 109°
2026-04-22 18:05 32.18057 34.83247 105 ft 11 kts 107°
2026-04-22 18:05 32.18029 34.83340 107 ft 16 kts 108°
2026-04-22 18:05 32.17993 34.83462 110 ft 13 kts 109°
2026-04-22 18:05 32.17967 34.83550 112 ft 9 kts 108°
2026-04-22 18:06 32.17948 34.83613 114 ft 11 kts 109°
2026-04-22 18:06 32.17921 34.83704 119 ft 9 kts 109°
2026-04-22 18:06 32.17904 34.83764 122 ft 9 kts 108°
2026-04-22 18:06 32.17884 34.83830 123 ft 6 kts 113°
2026-04-22 18:07 32.17880 34.83852 125 ft 0 kts 84°
2026-04-22 18:07 32.17894 34.83863 126 ft 5 kts 12°
2026-04-22 18:07 32.17921 34.83828 126 ft 15 kts 291°
2026-04-22 18:07 32.18020 34.83488 142 ft 63 kts 298°
2026-04-22 18:08 32.18174 34.82950 344 ft 68 kts 291°
2026-04-22 18:08 32.18486 34.82683 528 ft 68 kts
2026-04-22 18:08 32.18961 34.82861 690 ft 80 kts
2026-04-22 18:08 32.19337 34.83244 876 ft 90 kts 84°
2026-04-22 18:09 32.18995 34.84032 783 ft 117 kts 116°
2026-04-22 18:09 32.18671 34.84858 829 ft 101 kts 105°
2026-04-22 18:09 32.18245 34.85256 782 ft 80 kts 180°
2026-04-22 18:09 32.17733 34.85165 796 ft 69 kts 205°
2026-04-22 18:10 32.17628 34.84712 582 ft 61 kts 289°
2026-04-22 18:10 32.17783 34.84244 320 ft 62 kts 299°
2026-04-22 18:10 32.17916 34.83834 151 ft 47 kts 297°
2026-04-22 18:10 32.18005 34.83503 116 ft 46 kts 293°
2026-04-22 18:11 32.18143 34.83100 201 ft 64 kts 298°
2026-04-22 18:11 32.18376 34.82724 415 ft 61 kts 354°
2026-04-22 18:11 32.18828 34.82792 628 ft 69 kts
2026-04-22 18:11 32.19269 34.83059 781 ft 83 kts 51°
2026-04-22 18:12 32.19147 34.83776 787 ft 98 kts 112°
2026-04-22 18:12 32.18864 34.84429 843 ft 84 kts 107°
2026-04-22 18:12 32.18710 34.84840 865 ft 81 kts 105°
2026-04-22 18:12 32.18015 34.85206 632 ft 85 kts 191°
2026-04-22 18:13 32.17637 34.84889 593 ft 61 kts 276°
2026-04-22 18:13 32.17725 34.84428 440 ft 58 kts 294°
2026-04-22 18:13 32.17874 34.83975 217 ft 54 kts 298°
2026-04-22 18:13 32.17987 34.83597 112 ft 42 kts 296°
2026-04-22 18:14 32.18097 34.83222 151 ft 59 kts 302°
2026-04-22 18:14 32.18258 34.82796 385 ft 55 kts 308°
2026-04-22 18:14 32.18644 34.82663 549 ft 65 kts
2026-04-22 18:14 32.19094 34.82828 800 ft 70 kts 20°
2026-04-22 18:15 32.19274 34.83415 788 ft 102 kts 103°
2026-04-22 18:15 32.18994 34.84196 800 ft 105 kts 108°
2026-04-22 18:15 32.18711 34.84930 918 ft 98 kts 107°
2026-04-22 18:15 32.18174 34.85259 791 ft 85 kts 187°
2026-04-22 18:16 32.17679 34.85027 706 ft 72 kts 245°
2026-04-22 18:16 32.17704 34.84492 477 ft 61 kts 301°
2026-04-22 18:16 32.17845 34.84056 257 ft 51 kts 305°
2026-04-22 18:16 32.17958 34.83686 120 ft 43 kts 302°
2026-04-22 18:17 32.18082 34.83281 126 ft 68 kts 297°
2026-04-22 18:17 32.18230 34.82799 423 ft 55 kts 308°
2026-04-22 18:17 32.18630 34.82733 600 ft 67 kts
2026-04-22 18:17 32.19084 34.82880 819 ft 73 kts 24°
2026-04-22 18:18 32.19289 34.83469 758 ft 108 kts 109°
2026-04-22 18:18 32.18930 34.84102 942 ft 78 kts 104°
2026-04-22 18:18 32.18740 34.84716 839 ft 92 kts 105°
2026-04-22 18:18 32.18476 34.85255 763 ft 75 kts 166°
2026-04-22 18:19 32.17949 34.85207 681 ft 74 kts 195°
2026-04-22 18:19 32.17639 34.84894 579 ft 57 kts 266°
2026-04-22 18:19 32.17708 34.84442 453 ft 52 kts 301°
2026-04-22 18:19 32.17844 34.84043 277 ft 53 kts 301°
2026-04-22 18:20 32.17964 34.83672 128 ft 46 kts 302°
2026-04-22 18:20 32.18070 34.83339 104 ft 54 kts 289°
2026-04-22 18:20 32.18212 34.82887 302 ft 57 kts 298°
2026-04-22 18:20 32.18549 34.82724 481 ft 65 kts
2026-04-22 18:21 32.18998 34.82854 732 ft 64 kts 16°
2026-04-22 18:21 32.19409 34.83109 872 ft 81 kts 60°
2026-04-22 18:21 32.19143 34.83822 813 ft 112 kts 126°
2026-04-22 18:21 32.18668 34.84510 833 ft 101 kts 121°
2026-04-22 18:22 32.18340 34.85159 874 ft 98 kts 133°
2026-04-22 18:22 32.17737 34.85100 683 ft 76 kts 227°
2026-04-22 18:22 32.17677 34.84651 515 ft 50 kts 298°
2026-04-22 18:22 32.17794 34.84218 347 ft 59 kts 295°
2026-04-22 18:23 32.17923 34.83813 151 ft 49 kts 291°
2026-04-22 18:23 32.18034 34.83453 107 ft 53 kts 296°
2026-04-22 18:23 32.18183 34.82953 270 ft 64 kts 296°
2026-04-22 18:24 32.18974 34.82816 721 ft 71 kts 13°
2026-04-22 18:24 32.19495 34.82997 812 ft 86 kts 11°
2026-04-22 18:24 32.19763 34.84007 859 ft 111 kts 115°
2026-04-22 18:25 32.19385 34.84709 907 ft 96 kts 118°
2026-04-22 18:25 32.18962 34.85279 900 ft 97 kts 142°
2026-04-22 18:25 32.18291 34.85298 779 ft 93 kts 195°
2026-04-22 18:26 32.17655 34.84663 538 ft 57 kts 294°
2026-04-22 18:26 32.17791 34.84216 396 ft 59 kts 287°
2026-04-22 18:26 32.17946 34.83716 489 ft 72 kts 295°
2026-04-22 18:26 32.18123 34.83140 655 ft 80 kts 296°
2026-04-22 18:27 32.18473 34.82698 825 ft 83 kts 344°
2026-04-22 18:27 32.19102 34.82813 870 ft 97 kts 18°
2026-04-22 18:27 32.19541 34.83396 938 ft 105 kts 91°
2026-04-22 18:27 32.19143 34.84151 1033 ft 113 kts 147°
2026-04-22 18:28 32.18343 34.84128 953 ft 123 kts 216°
2026-04-22 18:28 32.17906 34.83421 863 ft 85 kts 257°
2026-04-22 18:28 32.18063 34.82922 852 ft 71 kts 327°
2026-04-22 18:28 32.18553 34.82756 992 ft 71 kts
2026-04-22 18:29 32.19016 34.82896 1232 ft 70 kts 15°
2026-04-22 18:29 32.19525 34.83038 1389 ft 75 kts 11°
2026-04-22 18:29 32.19789 34.83526 1378 ft 98 kts 92°
2026-04-22 18:29 32.19462 34.84356 1205 ft 121 kts 114°
2026-04-22 18:30 32.19113 34.85148 1029 ft 101 kts 117°
2026-04-22 18:30 32.17933 34.85196 788 ft 63 kts 195°
2026-04-22 18:30 32.17625 34.84860 620 ft 64 kts 275°
2026-04-22 18:31 32.17774 34.84296 379 ft 75 kts 293°
2026-04-22 18:31 32.17939 34.83733 273 ft 70 kts 289°
2026-04-22 18:31 32.18085 34.83124 419 ft 80 kts 291°
2026-04-22 18:31 32.18424 34.82698 670 ft 75 kts 354°
2026-04-22 18:32 32.18963 34.82800 801 ft 87 kts 10°
2026-04-22 18:32 32.19376 34.83280 911 ft 100 kts 83°
2026-04-22 18:32 32.19066 34.84096 855 ft 99 kts 118°
2026-04-22 18:32 32.18734 34.84798 777 ft 101 kts 112°
2026-04-22 18:33 32.18267 34.85278 787 ft 100 kts 187°
2026-04-22 18:33 32.17694 34.85044 670 ft 70 kts 247°
2026-04-22 18:33 32.17667 34.84576 478 ft 62 kts 296°
2026-04-22 18:33 32.17826 34.84129 246 ft 53 kts 295°
2026-04-22 18:34 32.17946 34.83728 119 ft 45 kts 297°
2026-04-22 18:34 32.18049 34.83402 104 ft 58 kts 288°
2026-04-22 18:34 32.18188 34.82899 302 ft 63 kts 292°
2026-04-22 18:34 32.18557 34.82696 405 ft 77 kts 12°
2026-04-22 18:35 32.19049 34.82866 673 ft 70 kts 12°
2026-04-22 18:35 32.19335 34.83320 772 ft 96 kts 93°
2026-04-22 18:35 32.19037 34.84090 826 ft 103 kts 112°
2026-04-22 18:35 32.18743 34.84814 860 ft 92 kts 110°
2026-04-22 18:36 32.18326 34.85258 708 ft 85 kts 166°
2026-04-22 18:36 32.17742 34.85142 594 ft 79 kts 215°
2026-04-22 18:36 32.17661 34.84640 472 ft 62 kts 296°
2026-04-22 18:36 32.17811 34.84176 308 ft 63 kts 295°
2026-04-22 18:37 32.17943 34.83751 132 ft 48 kts 293°
2026-04-22 18:37 32.18060 34.83367 105 ft 66 kts 296°
2026-04-22 18:37 32.18193 34.82898 335 ft 61 kts 308°
2026-04-22 18:37 32.18635 34.82717 397 ft 82 kts
2026-04-22 18:38 32.19132 34.82878 728 ft 70 kts 15°
2026-04-22 18:38 32.19313 34.83436 725 ft 106 kts 109°
2026-04-22 18:38 32.18946 34.84211 840 ft 108 kts 112°
2026-04-22 18:39 32.18214 34.85254 963 ft 84 kts 208°
2026-04-22 18:39 32.17941 34.84660 1066 ft 87 kts 268°
2026-04-22 18:39 32.17925 34.83948 1249 ft 91 kts 280°
2026-04-22 18:39 32.18095 34.83142 1247 ft 105 kts 299°
2026-04-22 18:40 32.18704 34.82766 1144 ft 104 kts
2026-04-22 18:40 32.19252 34.83199 976 ft 111 kts 75°
2026-04-22 18:40 32.19023 34.84126 931 ft 120 kts 110°
2026-04-22 18:40 32.18643 34.84994 830 ft 106 kts 121°
2026-04-22 18:41 32.18049 34.85245 671 ft 98 kts 190°
2026-04-22 18:41 32.17644 34.84858 544 ft 64 kts 272°
2026-04-22 18:41 32.17739 34.84376 339 ft 60 kts 302°
2026-04-22 18:41 32.17887 34.83933 184 ft 52 kts 298°
2026-04-22 18:42 32.18003 34.83561 109 ft 39 kts 294°
2026-04-22 18:42 32.18060 34.83347 102 ft 14 kts 255°
2026-04-22 18:42 32.18041 34.83301 104 ft 6 kts 286°
2026-04-22 18:42 32.18053 34.83254 103 ft 8 kts 283°
2026-04-22 18:43 32.18070 34.83203 102 ft 8 kts 279°
2026-04-22 18:43 32.18100 34.83097 99 ft 19 kts 291°
2026-04-22 18:43 32.18151 34.82973 97 ft 15 kts 292°
2026-04-22 18:43 32.18181 34.82872 96 ft 11 kts 289°
2026-04-22 18:44 32.18209 34.82811 96 ft 6 kts 15°
2026-04-22 18:44 32.18227 34.82801 96 ft 3 kts 245°
2026-04-22 18:44 32.18219 34.82801 96 ft 1 kts 105°
2026-04-22 18:44 32.18219 34.82803 96 ft 0 kts 99°